createdAt,value
2023-05-16T00:01:13.173Z,10.60
2023-05-16T00:03:55.877Z,11.10
2023-05-16T00:06:25.013Z,10.00
2023-05-16T00:09:24.339Z,10.90
2023-05-16T00:11:55.724Z,10.10
2023-05-16T00:15:05.483Z,10.30
2023-05-16T00:17:50.881Z,10.90
2023-05-16T00:20:54.261Z,10.80
2023-05-16T00:23:51.256Z,10.60
2023-05-16T00:26:29.096Z,10.60
2023-05-16T00:29:09.805Z,10.30
2023-05-16T00:31:57.681Z,11.40
2023-05-16T00:34:49.803Z,11.00
2023-05-16T00:37:24.210Z,11.00
2023-05-16T00:40:22.440Z,10.80
2023-05-16T00:43:27.399Z,10.80
2023-05-16T00:46:11.698Z,10.30
2023-05-16T00:49:27.753Z,10.90
2023-05-16T00:52:22.526Z,10.80
2023-05-16T00:55:04.121Z,10.80
2023-05-16T00:57:44.581Z,10.70
2023-05-16T01:00:48.585Z,10.90
2023-05-16T01:03:34.786Z,10.70
2023-05-16T01:06:23.753Z,10.10
2023-05-16T01:09:04.216Z,11.00
2023-05-16T01:11:57.975Z,11.10
2023-05-16T01:14:48.382Z,9.90
2023-05-16T01:18:03.666Z,10.10
2023-05-16T01:20:57.103Z,10.10
2023-05-16T01:24:07.905Z,9.20
2023-05-16T01:26:44.365Z,8.70
2023-05-16T01:29:22.847Z,9.80
2023-05-16T01:32:00.747Z,9.20
2023-05-16T01:35:28.795Z,8.80
2023-05-16T01:38:20.548Z,8.30
2023-05-16T01:41:48.471Z,8.70
2023-05-16T01:44:46.944Z,7.70
2023-05-16T01:47:47.522Z,8.10
2023-05-16T01:51:01.802Z,8.00
2023-05-16T01:53:39.637Z,7.80
2023-05-16T01:56:23.917Z,7.90
2023-05-16T01:58:57.895Z,8.20
2023-05-16T02:01:50.249Z,8.40
2023-05-16T02:04:40.115Z,8.20
2023-05-16T02:07:40.044Z,8.30
2023-05-16T02:10:13.999Z,8.10
2023-05-16T02:12:54.724Z,7.90
2023-05-16T02:15:39.898Z,8.20
2023-05-16T02:18:43.291Z,8.30
2023-05-16T02:21:52.943Z,8.00
2023-05-16T02:24:35.353Z,7.90
2023-05-16T02:27:30.411Z,7.70
2023-05-16T02:30:17.075Z,8.00
2023-05-16T02:33:03.643Z,7.70
2023-05-16T02:36:21.900Z,8.60
2023-05-16T02:39:10.241Z,7.80
2023-05-16T02:41:46.003Z,7.50
2023-05-16T02:44:20.429Z,7.80
2023-05-16T02:47:02.843Z,8.50
2023-05-16T02:49:54.594Z,8.20
2023-05-16T02:53:00.227Z,8.20
2023-05-16T02:55:53.482Z,7.30
2023-05-16T02:58:38.559Z,7.80
2023-05-16T03:01:13.312Z,7.80
2023-05-16T03:04:10.269Z,7.70
2023-05-16T03:07:08.002Z,7.70
2023-05-16T03:10:02.689Z,7.50
2023-05-16T03:13:01.791Z,8.00
2023-05-16T03:15:43.178Z,7.40
2023-05-16T03:18:34.940Z,7.70
2023-05-16T03:21:16.373Z,7.60
2023-05-16T03:23:59.128Z,8.00
2023-05-16T03:26:43.156Z,7.80
2023-05-16T03:29:26.491Z,7.80
2023-05-16T03:32:14.829Z,8.70
2023-05-16T03:34:50.377Z,8.10
2023-05-16T03:37:41.270Z,8.70
2023-05-16T03:40:23.774Z,7.80
2023-05-16T03:43:04.652Z,7.80
2023-05-16T03:45:50.264Z,7.00
2023-05-16T03:48:44.637Z,7.60
2023-05-16T03:51:16.281Z,7.20
2023-05-16T03:54:20.617Z,8.00
2023-05-16T03:57:01.790Z,7.50
2023-05-16T03:59:56.215Z,7.50
2023-05-16T04:02:24.860Z,7.10
2023-05-16T04:05:16.690Z,7.20
2023-05-16T04:08:28.802Z,7.60
2023-05-16T04:11:05.675Z,7.30
2023-05-16T04:13:45.140Z,7.80
2023-05-16T04:16:21.649Z,6.90
2023-05-16T04:19:07.290Z,7.30
2023-05-16T04:21:54.166Z,7.70
2023-05-16T04:24:52.069Z,7.20
2023-05-16T04:27:47.375Z,7.30
2023-05-16T04:30:21.359Z,7.90
2023-05-16T04:32:59.810Z,7.50
2023-05-16T04:35:40.978Z,7.30
2023-05-16T04:38:12.731Z,7.30
2023-05-16T04:40:55.826Z,7.50
2023-05-16T04:43:44.092Z,7.50
2023-05-16T04:46:58.575Z,7.20
2023-05-16T04:49:30.985Z,7.00
2023-05-16T04:52:13.539Z,8.00
2023-05-16T04:55:15.512Z,7.20
2023-05-16T04:57:44.397Z,7.10
2023-05-16T05:00:42.568Z,6.80
2023-05-16T05:03:30.604Z,7.30
2023-05-16T05:06:13.233Z,7.00
2023-05-16T05:08:55.939Z,6.90
2023-05-16T05:11:38.869Z,6.40
2023-05-16T05:14:23.010Z,6.70
2023-05-16T05:17:07.305Z,7.00
2023-05-16T05:19:45.304Z,6.80
2023-05-16T05:22:17.420Z,7.80
2023-05-16T05:24:52.064Z,7.30
2023-05-16T05:27:25.983Z,7.30
2023-05-16T05:30:17.673Z,7.40
2023-05-16T05:32:53.990Z,6.40
2023-05-16T05:35:58.881Z,6.90
2023-05-16T05:38:40.786Z,7.00
2023-05-16T05:41:35.686Z,6.90
2023-05-16T05:44:10.636Z,7.20
2023-05-16T05:46:44.519Z,6.80
2023-05-16T05:49:16.280Z,6.90
2023-05-16T05:51:48.047Z,6.80
2023-05-16T05:54:19.497Z,5.40
2023-05-16T05:56:49.011Z,6.70
2023-05-16T05:59:34.378Z,6.60
2023-05-16T06:02:05.782Z,5.90
2023-05-16T06:04:43.628Z,6.50
2023-05-16T06:07:15.388Z,6.60
2023-05-16T06:09:44.787Z,6.30
2023-05-16T06:12:23.392Z,6.10
2023-05-16T06:14:55.578Z,7.60
2023-05-16T06:17:29.814Z,6.70
2023-05-16T06:20:02.059Z,5.70
2023-05-16T06:22:34.740Z,6.40
2023-05-16T06:25:06.798Z,6.40
2023-05-16T06:27:38.465Z,7.10
2023-05-16T06:30:20.464Z,5.40
2023-05-16T06:32:52.180Z,6.50
2023-05-16T06:35:23.872Z,7.00
2023-05-16T06:37:55.970Z,6.30
2023-05-16T06:40:28.252Z,7.90
2023-05-16T06:43:02.840Z,6.30
2023-05-16T06:45:38.496Z,7.10
2023-05-16T06:48:14.933Z,6.70
2023-05-16T06:50:49.991Z,7.80
2023-05-16T06:53:22.355Z,8.20
2023-05-16T06:55:54.433Z,7.30
2023-05-16T06:58:23.930Z,8.30
2023-05-16T07:01:00.116Z,8.90
2023-05-16T07:03:32.851Z,9.30
2023-05-16T07:06:05.334Z,7.10
2023-05-16T07:08:37.717Z,8.60
2023-05-16T07:11:06.615Z,8.10
2023-05-16T07:13:36.061Z,8.50
2023-05-16T07:16:07.695Z,9.40
2023-05-16T07:18:39.578Z,8.90
2023-05-16T07:21:22.780Z,9.30
2023-05-16T07:23:51.757Z,9.20
2023-05-16T07:26:37.840Z,10.40
2023-05-16T07:29:17.085Z,8.60
2023-05-16T07:31:49.033Z,8.30
2023-05-16T07:34:42.915Z,10.80
2023-05-16T07:37:16.952Z,10.10
2023-05-16T07:39:51.347Z,11.30
2023-05-16T07:42:23.200Z,9.20
2023-05-16T07:44:52.225Z,9.50
2023-05-16T07:47:26.331Z,8.40
2023-05-16T07:50:03.901Z,10.30
2023-05-16T07:52:39.664Z,10.80
2023-05-16T07:55:31.176Z,8.50
2023-05-16T07:58:02.427Z,11.00
2023-05-16T08:00:31.512Z,9.70
2023-05-16T08:03:03.480Z,10.50
2023-05-16T08:05:35.388Z,8.30
2023-05-16T08:08:04.646Z,9.60
2023-05-16T08:10:35.991Z,8.90
2023-05-16T08:13:10.116Z,8.60
2023-05-16T08:16:02.420Z,8.70
2023-05-16T08:18:31.607Z,9.30
2023-05-16T08:21:03.704Z,7.50
2023-05-16T08:23:35.584Z,11.00
2023-05-16T08:26:04.657Z,11.20
2023-05-16T08:28:46.788Z,9.80
2023-05-16T08:31:27.901Z,8.50
2023-05-16T08:34:16.809Z,10.00
2023-05-16T08:36:51.933Z,8.30
2023-05-16T08:39:24.095Z,10.70
2023-05-16T08:41:52.894Z,11.70
2023-05-16T08:44:28.048Z,9.20
2023-05-16T08:47:19.328Z,12.00
2023-05-16T08:49:53.048Z,12.00
2023-05-16T08:52:27.018Z,10.80
2023-05-16T08:55:10.189Z,10.80
2023-05-16T08:57:41.654Z,11.10
2023-05-16T09:00:14.106Z,11.40
2023-05-16T09:02:49.402Z,12.20
2023-05-16T09:05:24.190Z,10.40
2023-05-16T09:08:05.359Z,11.50
2023-05-16T09:10:34.878Z,12.00
2023-05-16T09:13:07.353Z,10.60
2023-05-16T09:15:45.833Z,12.20
2023-05-16T09:18:19.189Z,9.90
2023-05-16T09:20:51.036Z,9.70
2023-05-16T09:23:27.395Z,10.70
2023-05-16T09:26:01.796Z,11.90
2023-05-16T09:28:44.009Z,11.70
2023-05-16T09:31:27.039Z,12.10
2023-05-16T09:34:15.063Z,12.00
2023-05-16T09:36:44.794Z,11.80
2023-05-16T09:39:20.534Z,10.00
2023-05-16T09:41:53.774Z,13.10
2023-05-16T09:44:23.776Z,13.30
2023-05-16T09:47:08.614Z,12.50
2023-05-16T09:49:47.642Z,12.00
2023-05-16T09:52:22.214Z,9.10
2023-05-16T09:55:15.400Z,13.00
2023-05-16T09:57:51.792Z,10.20
2023-05-16T10:00:30.491Z,10.40
2023-05-16T10:03:05.124Z,11.80
2023-05-16T10:05:37.107Z,11.30
2023-05-16T10:08:09.455Z,10.50
2023-05-16T10:10:42.707Z,12.20
2023-05-16T10:13:13.085Z,9.90
2023-05-16T10:15:50.567Z,12.80
2023-05-16T10:18:23.812Z,13.20
2023-05-16T10:20:55.567Z,12.20
2023-05-16T10:23:35.569Z,11.40
2023-05-16T10:26:06.510Z,8.90
2023-05-16T10:28:37.265Z,10.30
2023-05-16T10:31:10.854Z,12.90
2023-05-16T10:33:41.591Z,10.60
2023-05-16T10:36:16.602Z,10.20
2023-05-16T10:38:46.749Z,10.80
2023-05-16T10:41:16.035Z,10.00
2023-05-16T10:43:56.209Z,9.60
2023-05-16T10:46:27.972Z,9.80
2023-05-16T10:48:59.088Z,10.80
2023-05-16T10:51:36.806Z,10.80
2023-05-16T10:54:13.992Z,9.40
2023-05-16T10:56:43.733Z,10.90
2023-05-16T10:59:28.717Z,10.80
2023-05-16T11:01:58.110Z,12.60
2023-05-16T11:04:46.215Z,12.20
2023-05-16T11:07:17.577Z,11.20
2023-05-16T11:09:46.941Z,10.80
2023-05-16T11:12:16.544Z,10.30
2023-05-16T11:14:52.053Z,11.70
2023-05-16T11:17:24.477Z,12.70
2023-05-16T11:19:59.536Z,11.00
2023-05-16T11:22:34.443Z,10.90
2023-05-16T11:25:06.833Z,10.00
2023-05-16T11:27:38.479Z,13.10
2023-05-16T11:30:30.409Z,11.90
2023-05-16T11:33:02.411Z,11.30
2023-05-16T11:35:43.744Z,11.80
2023-05-16T11:38:16.858Z,11.70
2023-05-16T11:40:46.150Z,12.40
2023-05-16T11:43:20.137Z,12.10
2023-05-16T11:45:56.654Z,11.70
2023-05-16T11:48:35.835Z,12.20
2023-05-16T11:51:20.613Z,11.20
2023-05-16T11:53:50.856Z,10.50
2023-05-16T11:56:27.884Z,10.20
2023-05-16T11:59:01.340Z,10.40
2023-05-16T12:01:38.123Z,12.10
2023-05-16T12:04:16.611Z,10.50
2023-05-16T12:06:45.801Z,11.40
2023-05-16T12:09:18.618Z,11.10
2023-05-16T12:11:52.830Z,11.50
2023-05-16T12:14:26.428Z,12.40
2023-05-16T12:16:58.079Z,13.10
2023-05-16T12:19:38.033Z,11.30
2023-05-16T12:22:25.664Z,11.90
2023-05-16T12:24:54.546Z,11.50
2023-05-16T12:27:27.964Z,9.50
2023-05-16T12:29:59.080Z,9.90
2023-05-16T12:32:33.723Z,10.60
2023-05-16T12:35:03.121Z,11.50
2023-05-16T12:37:35.420Z,10.40
2023-05-16T12:40:06.584Z,13.40
2023-05-16T12:42:44.030Z,13.30
2023-05-16T12:45:20.094Z,11.30
2023-05-16T12:47:50.042Z,11.10
2023-05-16T12:50:22.588Z,11.30
2023-05-16T12:53:01.223Z,10.20
2023-05-16T12:55:35.600Z,11.50
2023-05-16T12:58:17.992Z,9.90
2023-05-16T13:00:49.797Z,12.90
2023-05-16T13:03:19.568Z,9.90
2023-05-16T13:05:53.803Z,10.00
2023-05-16T13:08:36.724Z,9.40
2023-05-16T13:11:16.172Z,12.70
2023-05-16T13:13:48.009Z,12.50
2023-05-16T13:16:23.196Z,11.00
2023-05-16T13:19:07.434Z,12.80
2023-05-16T13:21:42.609Z,9.30
2023-05-16T13:24:15.359Z,11.70
2023-05-16T13:26:59.986Z,10.30
2023-05-16T13:29:35.403Z,12.30
2023-05-16T13:32:08.256Z,10.60
2023-05-16T13:34:41.709Z,12.00
2023-05-16T13:37:16.341Z,11.60
2023-05-16T13:39:51.333Z,12.40
2023-05-16T13:42:31.993Z,10.80
2023-05-16T13:45:07.351Z,11.10
2023-05-16T13:47:49.325Z,14.30
2023-05-16T13:50:24.614Z,12.70
2023-05-16T13:52:58.529Z,12.30
2023-05-16T13:55:59.981Z,9.80
2023-05-16T13:59:03.764Z,14.30
2023-05-16T14:01:36.814Z,10.70
2023-05-16T14:04:06.253Z,13.50
2023-05-16T14:06:36.211Z,13.80
2023-05-16T14:09:13.777Z,11.80
2023-05-16T14:11:46.577Z,9.50
2023-05-16T14:14:21.936Z,12.00
2023-05-16T14:16:51.939Z,12.90
2023-05-16T14:19:21.339Z,14.20
2023-05-16T14:21:51.250Z,12.30
2023-05-16T14:24:26.088Z,11.80
2023-05-16T14:26:58.593Z,12.00
2023-05-16T14:29:38.316Z,12.40
2023-05-16T14:32:14.676Z,13.20
2023-05-16T14:34:53.499Z,10.40
2023-05-16T14:37:22.705Z,13.10
2023-05-16T14:39:53.314Z,12.00
2023-05-16T14:42:25.199Z,12.60
2023-05-16T14:44:54.188Z,13.20
2023-05-16T14:47:27.384Z,11.10
2023-05-16T14:50:04.984Z,10.60
2023-05-16T14:52:38.893Z,10.70
2023-05-16T14:55:21.300Z,10.80
2023-05-16T14:57:58.924Z,11.00
2023-05-16T15:00:39.774Z,12.80
2023-05-16T15:03:25.780Z,13.00
2023-05-16T15:05:56.135Z,13.30
2023-05-16T15:08:35.110Z,14.50
2023-05-16T15:11:38.791Z,14.30
2023-05-16T15:14:13.224Z,14.50
2023-05-16T15:17:01.142Z,13.80
2023-05-16T15:19:58.003Z,16.30
2023-05-16T15:22:30.569Z,13.10
2023-05-16T15:25:18.819Z,10.70
2023-05-16T15:27:58.737Z,10.20
2023-05-16T15:30:40.156Z,13.80
2023-05-16T15:33:16.232Z,11.90
2023-05-16T15:35:50.955Z,10.20
2023-05-16T15:38:31.373Z,9.40
2023-05-16T15:41:27.073Z,10.50
2023-05-16T15:44:27.021Z,10.60
2023-05-16T15:47:07.077Z,9.60
2023-05-16T15:49:59.903Z,11.10
2023-05-16T15:52:33.888Z,11.60
2023-05-16T15:55:13.931Z,12.90
2023-05-16T15:57:46.908Z,14.00
2023-05-16T16:00:21.336Z,14.50
2023-05-16T16:02:59.355Z,11.00
2023-05-16T16:06:07.652Z,13.00
2023-05-16T16:09:09.920Z,11.90
2023-05-16T16:11:56.362Z,13.30
2023-05-16T16:14:34.819Z,10.40
2023-05-16T16:17:11.532Z,12.60
2023-05-16T16:19:41.528Z,13.10
2023-05-16T16:22:15.867Z,14.00
2023-05-16T16:24:51.396Z,12.60
2023-05-16T16:27:21.402Z,11.40
2023-05-16T16:29:58.882Z,11.60
2023-05-16T16:32:35.341Z,10.50
2023-05-16T16:35:25.406Z,11.40
2023-05-16T16:38:07.393Z,12.00
2023-05-16T16:40:50.707Z,11.30
2023-05-16T16:43:42.696Z,10.80
2023-05-16T16:46:19.055Z,11.30
2023-05-16T16:48:55.436Z,8.30
2023-05-16T16:51:46.146Z,8.90
2023-05-16T16:54:28.239Z,9.40
2023-05-16T16:57:10.859Z,7.60
2023-05-16T16:59:49.676Z,10.70
2023-05-16T17:02:38.126Z,11.00
2023-05-16T17:05:14.504Z,10.40
2023-05-16T17:08:29.396Z,10.60
2023-05-16T17:11:23.302Z,8.00
2023-05-16T17:13:59.975Z,11.20
2023-05-16T17:16:35.270Z,10.10
2023-05-16T17:19:21.900Z,8.00
2023-05-16T17:21:55.174Z,10.60
2023-05-16T17:24:50.481Z,10.50
2023-05-16T17:27:24.982Z,11.60
2023-05-16T17:30:13.226Z,12.20
2023-05-16T17:33:03.262Z,10.00
2023-05-16T17:35:37.848Z,9.20
2023-05-16T17:38:20.560Z,11.80
2023-05-16T17:41:05.523Z,11.30
2023-05-16T17:43:35.151Z,10.80
2023-05-16T17:46:09.963Z,11.50
2023-05-16T17:48:43.187Z,12.60
2023-05-16T17:51:30.182Z,10.60
2023-05-16T17:54:04.040Z,12.10
2023-05-16T17:56:53.985Z,12.60
2023-05-16T17:59:27.993Z,12.50
2023-05-16T18:02:10.618Z,9.30
2023-05-16T18:04:42.599Z,10.20
2023-05-16T18:07:20.454Z,8.80
2023-05-16T18:09:54.220Z,10.30
2023-05-16T18:12:29.404Z,9.80
2023-05-16T18:15:13.486Z,12.50
2023-05-16T18:17:42.815Z,12.50
2023-05-16T18:20:13.026Z,12.50
2023-05-16T18:22:48.893Z,9.00
2023-05-16T18:25:22.277Z,13.00
2023-05-16T18:28:00.762Z,12.60
2023-05-16T18:30:34.451Z,12.80
2023-05-16T18:33:10.856Z,9.80
2023-05-16T18:35:41.376Z,13.00
2023-05-16T18:38:20.284Z,12.20
2023-05-16T18:40:58.170Z,12.80
2023-05-16T18:43:29.151Z,13.50
2023-05-16T18:45:58.477Z,14.00
2023-05-16T18:48:32.167Z,14.10
2023-05-16T18:51:10.936Z,14.70
2023-05-16T18:53:46.986Z,12.10
2023-05-16T18:56:16.801Z,11.90
2023-05-16T18:58:45.890Z,11.90
2023-05-16T19:01:22.748Z,9.30
2023-05-16T19:03:52.194Z,12.20
2023-05-16T19:06:23.191Z,13.60
2023-05-16T19:08:59.702Z,11.90
2023-05-16T19:11:31.311Z,11.90
2023-05-16T19:14:13.325Z,10.80
2023-05-16T19:16:55.851Z,8.50
2023-05-16T19:19:37.102Z,13.70
2023-05-16T19:22:11.411Z,11.40
2023-05-16T19:24:49.374Z,10.50
2023-05-16T19:27:19.606Z,10.80
2023-05-16T19:29:53.492Z,10.30
2023-05-16T19:32:23.948Z,13.20
2023-05-16T19:35:01.819Z,12.50
2023-05-16T19:37:32.783Z,11.00
2023-05-16T19:40:04.657Z,11.30
2023-05-16T19:42:43.738Z,13.20
2023-05-16T19:45:21.671Z,10.80
2023-05-16T19:47:52.749Z,13.90
2023-05-16T19:50:23.836Z,11.80
2023-05-16T19:52:55.276Z,10.80
2023-05-16T19:55:30.503Z,10.90
2023-05-16T19:58:32.606Z,12.60
2023-05-16T20:04:17.822Z,12.60
2023-05-16T20:06:52.909Z,12.50
2023-05-16T20:09:28.738Z,9.70
2023-05-16T20:11:59.998Z,12.20
2023-05-16T20:14:37.250Z,11.90
2023-05-16T20:17:33.054Z,13.30
2023-05-16T20:20:07.181Z,12.80
2023-05-16T20:22:48.246Z,11.40
2023-05-16T20:25:27.597Z,11.60
2023-05-16T20:28:27.609Z,12.40
2023-05-16T20:31:21.224Z,10.20
2023-05-16T20:34:01.999Z,12.50
2023-05-16T20:36:43.352Z,11.10
2023-05-16T20:39:29.340Z,12.50
2023-05-16T20:42:11.544Z,11.40
2023-05-16T20:44:43.657Z,12.40
2023-05-16T20:47:23.329Z,10.50
2023-05-16T20:49:59.727Z,12.20
2023-05-16T20:52:31.225Z,13.10
2023-05-16T20:55:02.057Z,11.70
2023-05-16T20:57:37.305Z,12.90
2023-05-16T21:00:13.070Z,9.10
2023-05-16T21:02:52.738Z,12.00
2023-05-16T21:05:33.096Z,11.30
2023-05-16T21:08:02.405Z,12.00
2023-05-16T21:10:31.759Z,12.10
2023-05-16T21:13:07.001Z,10.40
2023-05-16T21:15:42.345Z,12.40
2023-05-16T21:18:20.735Z,12.10
2023-05-16T21:20:52.536Z,11.60
2023-05-16T21:23:24.064Z,12.40
2023-05-16T21:25:55.515Z,9.60
2023-05-16T21:28:31.153Z,11.30
2023-05-16T21:31:01.996Z,9.40
2023-05-16T21:33:33.770Z,10.80
2023-05-16T21:36:06.135Z,9.90
2023-05-16T21:38:35.732Z,12.00
2023-05-16T21:41:14.008Z,11.20
2023-05-16T21:43:46.073Z,10.70
2023-05-16T21:46:16.380Z,10.90
2023-05-16T21:48:46.302Z,11.50
2023-05-16T21:51:16.381Z,11.10
2023-05-16T21:53:51.400Z,10.00
2023-05-16T21:56:27.090Z,9.60
2023-05-16T21:59:01.072Z,9.70
2023-05-16T22:01:30.728Z,9.60
2023-05-16T22:04:02.377Z,9.30
2023-05-16T22:06:36.599Z,11.70
2023-05-16T22:09:08.676Z,10.90
2023-05-16T22:11:37.870Z,12.00
2023-05-16T22:14:07.927Z,11.80
2023-05-16T22:16:41.808Z,8.60
2023-05-16T22:19:13.661Z,12.90
2023-05-16T22:21:47.702Z,12.30
2023-05-16T22:24:17.954Z,12.80
2023-05-16T22:26:47.336Z,10.10
2023-05-16T22:29:16.904Z,9.20
2023-05-16T22:31:51.425Z,9.60
2023-05-16T22:34:26.325Z,12.00
2023-05-16T22:37:17.273Z,10.90
2023-05-16T22:39:48.196Z,9.10
2023-05-16T22:42:16.791Z,11.10
2023-05-16T22:45:18.042Z,9.20
2023-05-16T22:48:15.012Z,8.50
2023-05-16T22:51:09.257Z,9.60
2023-05-16T22:54:09.256Z,9.00
2023-05-16T22:57:41.565Z,11.20
2023-05-16T23:00:34.807Z,9.90
2023-05-16T23:03:52.254Z,10.20
2023-05-16T23:06:47.352Z,7.60
2023-05-16T23:09:49.842Z,10.20
2023-05-16T23:12:37.935Z,11.10
2023-05-16T23:15:53.350Z,10.00
2023-05-16T23:18:38.137Z,10.10
2023-05-16T23:21:50.653Z,8.90
2023-05-16T23:24:52.851Z,9.60
2023-05-16T23:27:58.134Z,9.20
2023-05-16T23:31:07.192Z,8.70
2023-05-16T23:34:24.714Z,9.80
2023-05-16T23:37:19.193Z,8.60
2023-05-16T23:40:33.882Z,8.10
2023-05-16T23:43:19.895Z,7.40
2023-05-16T23:46:27.181Z,8.00
2023-05-16T23:49:06.649Z,9.30
2023-05-16T23:52:03.834Z,9.20
2023-05-16T23:55:15.639Z,8.90
2023-05-16T23:58:53.458Z,9.00
